createdAt,value
2022-08-09T00:01:10.522Z,94.00
2022-08-09T00:04:00.687Z,94.00
2022-08-09T00:06:38.088Z,93.80
2022-08-09T00:09:17.948Z,93.30
2022-08-09T00:12:04.010Z,93.00
2022-08-09T00:14:38.567Z,92.60
2022-08-09T00:18:05.603Z,92.60
2022-08-09T00:20:04.014Z,92.60
2022-08-09T00:22:36.433Z,92.60
2022-08-09T00:25:10.311Z,92.60
2022-08-09T00:27:44.845Z,92.80
2022-08-09T00:30:26.075Z,92.50
2022-08-09T00:32:59.304Z,92.50
2022-08-09T00:35:42.665Z,92.50
2022-08-09T00:38:16.137Z,92.40
2022-08-09T00:40:53.859Z,92.30
2022-08-09T00:44:13.639Z,92.30
2022-08-09T00:46:55.494Z,92.10
2022-08-09T00:49:11.171Z,91.90
2022-08-09T00:51:55.989Z,91.80
2022-08-09T00:54:31.442Z,91.60
2022-08-09T00:57:10.690Z,91.70
2022-08-09T00:59:46.732Z,91.60
2022-08-09T01:02:29.041Z,91.70
2022-08-09T01:05:14.268Z,91.60
2022-08-09T01:08:00.188Z,91.40
2022-08-09T01:10:57.716Z,91.50
2022-08-09T01:13:41.945Z,91.60
2022-08-09T01:16:36.751Z,91.50
2022-08-09T01:20:02.865Z,91.50
2022-08-09T01:22:51.227Z,91.60
2022-08-09T01:25:42.176Z,91.60
2022-08-09T01:28:25.412Z,91.60
2022-08-09T01:31:00.974Z,91.70
2022-08-09T01:33:40.462Z,91.50
2022-08-09T01:36:14.757Z,91.40
2022-08-09T01:38:50.465Z,91.30
2022-08-09T01:41:29.638Z,91.30
2022-08-09T01:44:04.988Z,91.80
2022-08-09T01:46:41.769Z,91.40
2022-08-09T01:49:24.268Z,91.60
2022-08-09T01:52:07.514Z,91.70
2022-08-09T01:54:48.973Z,91.70
2022-08-09T01:57:31.118Z,91.60
2022-08-09T02:00:34.665Z,91.50
2022-08-09T02:03:07.202Z,91.50
2022-08-09T02:05:53.623Z,92.00
2022-08-09T02:08:58.508Z,91.60
2022-08-09T02:11:42.071Z,91.60
2022-08-09T02:14:26.520Z,91.90
2022-08-09T02:17:29.400Z,92.10
2022-08-09T02:19:51.378Z,92.30
2022-08-09T02:22:46.353Z,92.30
2022-08-09T02:25:25.191Z,92.50
2022-08-09T02:28:12.694Z,92.00
2022-08-09T02:31:03.545Z,92.10
2022-08-09T02:34:07.276Z,92.30
2022-08-09T02:36:41.867Z,91.90
2022-08-09T02:39:19.961Z,91.20
2022-08-09T02:42:08.817Z,91.30
2022-08-09T02:44:44.512Z,91.50
2022-08-09T02:47:20.120Z,91.80
2022-08-09T02:50:04.152Z,91.60
2022-08-09T02:52:44.634Z,91.70
2022-08-09T02:55:23.025Z,91.90
2022-08-09T02:58:35.413Z,91.90
2022-08-09T03:01:10.937Z,91.90
2022-08-09T03:04:16.727Z,91.90
2022-08-09T03:06:43.772Z,92.00
2022-08-09T03:09:20.385Z,92.40
2022-08-09T03:12:09.747Z,92.50
2022-08-09T03:14:44.041Z,92.80
2022-08-09T03:17:26.655Z,92.50
2022-08-09T03:20:05.194Z,92.80
2022-08-09T03:22:46.954Z,93.00
2022-08-09T03:25:58.435Z,93.00
2022-08-09T03:28:25.167Z,93.20
2022-08-09T03:30:57.966Z,93.30
2022-08-09T03:33:54.095Z,93.10
2022-08-09T03:36:27.636Z,92.80
2022-08-09T03:39:00.075Z,92.60
2022-08-09T03:41:46.045Z,92.60
2022-08-09T03:44:22.417Z,92.60
2022-08-09T03:46:59.790Z,92.70
2022-08-09T03:49:35.808Z,92.70
2022-08-09T03:52:08.846Z,92.80
2022-08-09T03:54:41.125Z,92.60
2022-08-09T03:57:19.813Z,92.40
2022-08-09T03:59:55.992Z,92.60
2022-08-09T04:02:33.853Z,92.70
2022-08-09T04:05:13.903Z,92.80
2022-08-09T04:07:56.625Z,92.60
2022-08-09T04:10:30.491Z,92.70
2022-08-09T04:13:09.487Z,92.90
2022-08-09T04:16:20.964Z,92.70
2022-08-09T04:18:36.885Z,92.70
2022-08-09T04:21:10.823Z,92.80
2022-08-09T04:23:53.702Z,92.90
2022-08-09T04:26:37.853Z,92.80
2022-08-09T04:29:14.810Z,93.00
2022-08-09T04:31:47.758Z,93.00
2022-08-09T04:34:31.828Z,93.40
2022-08-09T04:37:03.935Z,93.30
2022-08-09T04:39:40.491Z,93.40
2022-08-09T04:42:15.859Z,93.30
2022-08-09T04:44:50.447Z,93.40
2022-08-09T04:47:26.145Z,93.50
2022-08-09T04:50:16.936Z,93.80
2022-08-09T04:52:56.513Z,93.40
2022-08-09T04:55:35.373Z,92.90
2022-08-09T04:58:11.563Z,92.30
2022-08-09T05:00:45.908Z,91.60
2022-08-09T05:03:41.108Z,91.20
2022-08-09T05:06:26.744Z,91.10
2022-08-09T05:09:01.307Z,90.60
2022-08-09T05:11:36.064Z,90.90
2022-08-09T05:14:08.154Z,90.50
2022-08-09T05:16:57.955Z,90.20
2022-08-09T05:19:31.872Z,88.80
2022-08-09T05:22:28.434Z,88.80
2022-08-09T05:25:07.307Z,88.20
2022-08-09T05:27:46.505Z,87.00
2022-08-09T05:30:20.049Z,87.30
2022-08-09T05:32:53.393Z,87.70
2022-08-09T05:35:25.353Z,87.80
2022-08-09T05:37:57.353Z,87.50
2022-08-09T05:40:30.508Z,88.20
2022-08-09T05:43:02.409Z,87.10
2022-08-09T05:45:52.585Z,85.60
2022-08-09T05:48:33.315Z,85.90
2022-08-09T05:51:30.383Z,85.30
2022-08-09T05:53:59.788Z,85.30
2022-08-09T05:56:33.254Z,85.90
2022-08-09T05:59:05.954Z,87.40
2022-08-09T06:01:43.372Z,86.20
2022-08-09T06:04:15.532Z,86.60
2022-08-09T06:06:55.781Z,87.00
2022-08-09T06:09:54.199Z,86.60
2022-08-09T06:12:21.280Z,87.60
2022-08-09T06:15:01.477Z,87.30
2022-08-09T06:17:40.362Z,86.30
2022-08-09T06:20:12.713Z,86.80
2022-08-09T06:22:50.180Z,86.90
2022-08-09T06:25:23.150Z,86.70
2022-08-09T06:27:55.007Z,86.70
2022-08-09T06:30:26.929Z,86.30
2022-08-09T06:33:30.242Z,86.00
2022-08-09T06:35:57.531Z,86.40
2022-08-09T06:38:32.245Z,85.30
2022-08-09T06:41:18.702Z,85.60
2022-08-09T06:43:53.179Z,84.90
2022-08-09T06:46:39.770Z,85.30
2022-08-09T06:49:16.211Z,85.00
2022-08-09T06:52:01.164Z,85.00
2022-08-09T06:54:33.296Z,85.00
2022-08-09T06:57:05.455Z,84.10
2022-08-09T07:00:52.718Z,84.20
2022-08-09T07:02:33.834Z,84.20
2022-08-09T07:05:06.828Z,83.60
2022-08-09T07:07:59.511Z,83.90
2022-08-09T07:10:32.454Z,83.30
2022-08-09T07:13:27.308Z,84.00
2022-08-09T07:16:43.207Z,83.60
2022-08-09T07:18:50.536Z,82.80
2022-08-09T07:21:23.675Z,82.90
2022-08-09T07:23:58.293Z,82.00
2022-08-09T07:26:30.448Z,81.90
2022-08-09T07:29:11.767Z,82.80
2022-08-09T07:31:48.078Z,82.80
2022-08-09T07:34:21.287Z,82.60
2022-08-09T07:36:57.692Z,82.70
2022-08-09T07:39:41.378Z,83.90
2022-08-09T07:42:14.839Z,83.00
2022-08-09T07:44:52.511Z,83.60
2022-08-09T07:47:25.938Z,82.70
2022-08-09T07:50:07.898Z,84.00
2022-08-09T07:52:43.025Z,82.80
2022-08-09T07:55:16.106Z,82.90
2022-08-09T07:57:49.048Z,83.80
2022-08-09T08:00:35.623Z,82.40
2022-08-09T08:03:08.698Z,81.10
2022-08-09T08:05:53.841Z,81.80
2022-08-09T08:09:01.719Z,82.50
2022-08-09T08:12:24.126Z,82.10
2022-08-09T08:14:14.715Z,79.50
2022-08-09T08:17:00.604Z,79.70
2022-08-09T08:19:39.937Z,80.60
2022-08-09T08:22:11.820Z,81.60
2022-08-09T08:24:48.654Z,81.20
2022-08-09T08:27:21.153Z,82.60
2022-08-09T08:29:58.022Z,81.10
2022-08-09T08:32:31.129Z,80.10
2022-08-09T08:35:05.451Z,79.60
2022-08-09T08:37:41.931Z,78.20
2022-08-09T08:40:29.763Z,78.00
2022-08-09T08:43:08.929Z,79.80
2022-08-09T08:46:03.913Z,80.50
2022-08-09T08:48:51.493Z,79.90
2022-08-09T08:51:25.780Z,80.60
2022-08-09T08:54:20.409Z,79.90
2022-08-09T08:57:00.413Z,80.70
2022-08-09T08:59:46.493Z,80.20
2022-08-09T09:02:31.934Z,79.90
2022-08-09T09:05:09.858Z,79.20
2022-08-09T09:07:47.135Z,79.20
2022-08-09T09:10:22.697Z,78.80
2022-08-09T09:12:59.005Z,80.00
2022-08-09T09:15:41.078Z,81.30
2022-08-09T09:18:16.430Z,80.00
2022-08-09T09:20:48.603Z,77.80
2022-08-09T09:23:57.264Z,78.80
2022-08-09T09:26:31.160Z,79.90
2022-08-09T09:29:11.367Z,79.90
2022-08-09T09:32:06.692Z,79.20
2022-08-09T09:34:45.064Z,80.00
2022-08-09T09:37:31.916Z,80.70
2022-08-09T09:40:06.818Z,79.50
2022-08-09T09:42:46.055Z,80.70
2022-08-09T09:45:26.554Z,79.80
2022-08-09T09:48:04.976Z,80.40
2022-08-09T09:50:50.764Z,80.90
2022-08-09T09:53:43.881Z,78.70
2022-08-09T09:56:30.836Z,77.60
2022-08-09T09:59:04.264Z,75.20
2022-08-09T10:01:40.699Z,74.00
2022-08-09T10:04:22.899Z,75.30
2022-08-09T10:07:09.781Z,75.40
2022-08-09T10:09:54.880Z,75.90
2022-08-09T10:12:32.765Z,74.10
2022-08-09T10:15:25.331Z,76.60
2022-08-09T10:18:11.793Z,76.80
2022-08-09T10:20:45.331Z,75.10
2022-08-09T10:23:22.811Z,75.70
2022-08-09T10:26:06.766Z,73.60
2022-08-09T10:28:48.691Z,74.00
2022-08-09T10:34:33.570Z,74.50
2022-08-09T10:37:09.581Z,74.00
2022-08-09T10:39:49.455Z,73.00
2022-08-09T10:42:26.923Z,74.90
2022-08-09T10:45:12.134Z,75.70
2022-08-09T10:48:19.530Z,77.10
2022-08-09T10:51:21.359Z,77.60
2022-08-09T10:54:09.959Z,77.50
2022-08-09T10:56:44.626Z,76.60
2022-08-09T10:59:23.173Z,77.30
2022-08-09T11:03:07.396Z,76.40
2022-08-09T11:05:25.026Z,76.30
2022-08-09T11:08:47.631Z,76.40
2022-08-09T11:11:20.265Z,77.70
2022-08-09T11:14:35.276Z,77.10
2022-08-09T11:17:19.331Z,77.00
2022-08-09T11:20:18.012Z,77.30
2022-08-09T11:22:58.562Z,77.10
2022-08-09T11:25:44.953Z,77.40
2022-08-09T11:28:38.495Z,78.00
2022-08-09T11:31:49.189Z,77.60
2022-08-09T11:34:35.069Z,77.80
2022-08-09T11:37:08.928Z,77.40
2022-08-09T11:40:02.761Z,77.20
2022-08-09T11:42:48.460Z,77.20
2022-08-09T11:45:42.687Z,77.10
2022-08-09T11:48:24.869Z,77.40
2022-08-09T11:52:48.930Z,77.50
2022-08-09T11:54:13.135Z,77.80
2022-08-09T11:56:47.665Z,77.30
2022-08-09T11:59:30.564Z,77.30
2022-08-09T12:02:17.326Z,77.00
2022-08-09T12:05:06.116Z,77.30
2022-08-09T12:07:41.582Z,77.60
2022-08-09T12:10:38.360Z,76.70
2022-08-09T12:14:10.441Z,77.60
2022-08-09T12:16:04.214Z,77.30
2022-08-09T12:18:38.178Z,77.30
2022-08-09T12:21:28.668Z,75.90
2022-08-09T12:24:09.575Z,76.10
2022-08-09T12:29:13.809Z,75.80
2022-08-09T12:30:00.010Z,75.90
2022-08-09T12:32:36.634Z,76.40
2022-08-09T12:35:19.220Z,76.50
2022-08-09T12:37:53.847Z,75.20
2022-08-09T12:40:28.840Z,75.80
2022-08-09T12:43:02.214Z,76.00
2022-08-09T12:45:38.320Z,76.40
2022-08-09T12:48:27.860Z,76.80
2022-08-09T12:51:04.613Z,75.80
2022-08-09T12:53:40.743Z,76.30
2022-08-09T12:56:44.147Z,75.50
2022-08-09T12:59:20.045Z,76.60
2022-08-09T13:02:07.188Z,75.90
2022-08-09T13:04:41.832Z,75.50
2022-08-09T13:07:19.324Z,75.60
2022-08-09T13:10:02.576Z,76.00
2022-08-09T13:13:09.411Z,75.90
2022-08-09T13:16:00.647Z,74.50
2022-08-09T13:18:54.640Z,75.10
2022-08-09T13:22:38.181Z,75.70
2022-08-09T13:24:53.650Z,76.10
2022-08-09T13:27:40.071Z,76.00
2022-08-09T13:30:51.176Z,76.10
2022-08-09T13:33:23.015Z,75.40
2022-08-09T13:36:39.457Z,75.30
2022-08-09T13:38:56.754Z,75.80
2022-08-09T13:41:59.249Z,76.00
2022-08-09T13:44:22.960Z,75.80
2022-08-09T13:47:29.092Z,75.30
2022-08-09T13:49:58.235Z,75.60
2022-08-09T13:52:34.591Z,75.20
2022-08-09T13:55:07.735Z,75.40
2022-08-09T13:57:56.091Z,75.80
2022-08-09T14:00:30.495Z,76.50
2022-08-09T14:04:01.292Z,75.80
2022-08-09T14:05:56.420Z,75.00
2022-08-09T14:08:33.950Z,73.90
2022-08-09T14:11:09.855Z,74.50
2022-08-09T14:14:23.469Z,74.50
2022-08-09T14:16:41.004Z,73.90
2022-08-09T14:19:13.757Z,73.80
2022-08-09T14:21:48.956Z,73.20
2022-08-09T14:24:31.874Z,72.90
2022-08-09T14:27:20.049Z,73.10
2022-08-09T14:30:34.110Z,72.70
2022-08-09T14:32:44.728Z,72.80
2022-08-09T14:35:16.675Z,74.00
2022-08-09T14:38:02.563Z,74.70
2022-08-09T14:41:01.501Z,73.90
2022-08-09T14:43:47.835Z,73.80
2022-08-09T14:46:55.000Z,74.90
2022-08-09T14:49:12.251Z,75.30
2022-08-09T14:51:48.082Z,74.90
2022-08-09T14:54:22.098Z,75.20
2022-08-09T14:56:58.758Z,75.00
2022-08-09T14:59:31.343Z,75.30
2022-08-09T15:02:10.655Z,75.70
2022-08-09T15:04:46.121Z,74.90
2022-08-09T15:07:19.780Z,74.20
2022-08-09T15:10:07.194Z,73.30
2022-08-09T15:12:45.035Z,73.50
2022-08-09T15:15:17.326Z,73.10
2022-08-09T15:17:52.793Z,73.90
2022-08-09T15:21:55.524Z,73.60
2022-08-09T15:24:01.492Z,73.80
2022-08-09T15:26:19.055Z,73.00
2022-08-09T15:29:04.407Z,73.30
2022-08-09T15:31:41.965Z,73.10
2022-08-09T15:34:31.608Z,72.70
2022-08-09T15:37:37.751Z,72.50
2022-08-09T15:40:21.828Z,72.40
2022-08-09T15:42:57.269Z,72.70
2022-08-09T15:45:30.102Z,72.00
2022-08-09T15:48:07.746Z,72.10
2022-08-09T15:50:54.122Z,73.50
2022-08-09T15:54:02.641Z,73.30
2022-08-09T15:56:21.627Z,74.70
2022-08-09T15:59:02.444Z,73.60
2022-08-09T16:01:35.384Z,72.30
2022-08-09T16:04:13.533Z,72.70
2022-08-09T16:06:50.490Z,73.30
2022-08-09T16:09:32.552Z,74.60
2022-08-09T16:12:15.660Z,74.10
2022-08-09T16:14:47.700Z,73.40
2022-08-09T16:17:19.918Z,73.70
2022-08-09T16:20:04.740Z,73.70
2022-08-09T16:22:42.058Z,72.30
2022-08-09T16:25:15.759Z,73.20
2022-08-09T16:27:52.724Z,72.00
2022-08-09T16:30:26.020Z,71.90
2022-08-09T16:33:11.268Z,73.60
2022-08-09T16:35:56.064Z,73.60
2022-08-09T16:38:30.002Z,73.70
2022-08-09T16:41:04.311Z,73.60
2022-08-09T16:43:40.511Z,74.60
2022-08-09T16:46:13.896Z,74.30
2022-08-09T16:48:56.905Z,74.70
2022-08-09T16:51:36.689Z,73.10
2022-08-09T16:54:25.840Z,73.50
2022-08-09T16:57:00.553Z,74.00
2022-08-09T16:59:34.863Z,74.50
2022-08-09T17:02:07.330Z,73.70
2022-08-09T17:04:42.748Z,73.20
2022-08-09T17:08:44.245Z,73.70
2022-08-09T17:10:12.292Z,74.30
2022-08-09T17:12:45.449Z,74.60
2022-08-09T17:15:30.584Z,74.70
2022-08-09T17:18:11.584Z,75.10
2022-08-09T17:20:52.432Z,75.60
2022-08-09T17:24:20.064Z,76.00
2022-08-09T17:26:17.687Z,76.20
2022-08-09T17:29:20.041Z,76.30
2022-08-09T17:31:52.941Z,76.20
2022-08-09T17:35:03.972Z,76.20
2022-08-09T17:37:19.400Z,75.90
2022-08-09T17:39:53.723Z,76.40
2022-08-09T17:42:41.739Z,77.00
2022-08-09T17:45:15.914Z,77.40
2022-08-09T17:48:06.645Z,77.30
2022-08-09T17:50:41.766Z,77.10
2022-08-09T17:53:28.515Z,76.60
2022-08-09T17:56:07.729Z,76.60
2022-08-09T17:58:42.763Z,76.60
2022-08-09T18:01:22.491Z,76.60
2022-08-09T18:03:55.843Z,77.30
2022-08-09T18:06:32.839Z,77.70
2022-08-09T18:09:08.352Z,77.90
2022-08-09T18:12:05.626Z,77.90
2022-08-09T18:14:32.866Z,78.10
2022-08-09T18:17:04.897Z,78.80
2022-08-09T18:20:58.762Z,79.20
2022-08-09T18:22:34.108Z,79.20
2022-08-09T18:25:06.801Z,79.30
2022-08-09T18:28:03.240Z,79.70
2022-08-09T18:30:39.437Z,79.90
2022-08-09T18:33:23.016Z,80.40
2022-08-09T18:36:00.157Z,81.20
2022-08-09T18:38:32.517Z,81.60
2022-08-09T18:41:04.539Z,82.10
2022-08-09T18:43:36.518Z,82.40
2022-08-09T18:46:46.672Z,82.80
2022-08-09T18:49:09.528Z,82.90
2022-08-09T18:51:55.603Z,82.80
2022-08-09T18:54:30.448Z,83.30
2022-08-09T18:57:06.158Z,84.00
2022-08-09T18:59:51.192Z,84.50
2022-08-09T19:02:31.614Z,84.30
2022-08-09T19:05:20.225Z,84.50
2022-08-09T19:08:10.241Z,85.20
2022-08-09T19:10:46.185Z,86.10
2022-08-09T19:13:23.050Z,86.40
2022-08-09T19:16:10.417Z,87.20
2022-08-09T19:18:45.458Z,87.70
2022-08-09T19:21:21.570Z,88.00
2022-08-09T19:24:35.953Z,88.30
2022-08-09T19:26:51.598Z,88.50
2022-08-09T19:29:24.059Z,88.60
2022-08-09T19:31:59.857Z,89.00
2022-08-09T19:34:36.804Z,89.20
2022-08-09T19:37:16.854Z,89.60
2022-08-09T19:40:04.189Z,89.90
2022-08-09T19:42:37.970Z,90.00
2022-08-09T19:45:11.267Z,90.00
2022-08-09T19:47:44.427Z,90.40
2022-08-09T19:50:51.050Z,90.40
2022-08-09T19:53:08.347Z,90.60
2022-08-09T19:56:03.137Z,90.70
2022-08-09T19:58:35.698Z,90.80
2022-08-09T20:01:08.236Z,90.90
2022-08-09T20:04:17.840Z,91.10
2022-08-09T20:06:32.363Z,91.20
2022-08-09T20:09:04.804Z,91.30
2022-08-09T20:11:45.377Z,91.50
2022-08-09T20:14:23.843Z,91.40
2022-08-09T20:16:57.686Z,91.50
2022-08-09T20:19:48.668Z,91.80
2022-08-09T20:22:24.250Z,91.70
2022-08-09T20:25:04.845Z,91.90
2022-08-09T20:27:36.827Z,92.00
2022-08-09T20:30:14.104Z,92.10
2022-08-09T20:32:52.443Z,92.20
2022-08-09T20:35:24.655Z,92.40
2022-08-09T20:38:23.752Z,92.40
2022-08-09T20:40:49.168Z,92.50
2022-08-09T20:43:24.552Z,92.70
2022-08-09T20:46:15.534Z,92.50
2022-08-09T20:48:49.684Z,92.60
2022-08-09T20:51:25.976Z,92.70
2022-08-09T20:53:57.851Z,92.80
2022-08-09T20:56:29.724Z,92.90
2022-08-09T20:59:02.915Z,92.80
2022-08-09T21:01:50.077Z,93.00
2022-08-09T21:05:54.481Z,93.10
2022-08-09T21:07:16.543Z,93.10
2022-08-09T21:09:56.441Z,93.10
2022-08-09T21:15:34.572Z,93.50
2022-08-09T21:18:21.117Z,93.60
2022-08-09T21:20:58.165Z,93.60
2022-08-09T21:23:47.779Z,93.60
2022-08-09T21:26:22.397Z,93.70
2022-08-09T21:28:57.127Z,93.60
2022-08-09T21:31:48.771Z,93.70
2022-08-09T21:34:28.568Z,93.80
2022-08-09T21:37:00.919Z,93.80
2022-08-09T21:39:42.157Z,93.90
2022-08-09T21:42:14.484Z,93.90
2022-08-09T21:44:46.658Z,94.00
2022-08-09T21:47:20.184Z,94.20
2022-08-09T21:49:52.154Z,94.30
2022-08-09T21:52:24.145Z,94.30
2022-08-09T21:55:03.196Z,94.40
2022-08-09T21:57:59.469Z,94.50
2022-08-09T22:00:33.612Z,94.40
2022-08-09T22:03:12.571Z,94.60
2022-08-09T22:05:51.703Z,94.30
2022-08-09T22:08:27.344Z,94.40
2022-08-09T22:11:50.259Z,94.50
2022-08-09T22:13:51.444Z,94.30
2022-08-09T22:16:23.470Z,94.30
2022-08-09T22:18:55.635Z,94.40
2022-08-09T22:21:45.205Z,94.40
2022-08-09T22:24:24.135Z,94.30
2022-08-09T22:26:57.023Z,94.30
2022-08-09T22:29:38.481Z,94.30
2022-08-09T22:32:29.924Z,94.20
2022-08-09T22:35:06.591Z,94.30
2022-08-09T22:38:07.066Z,94.20
2022-08-09T22:40:39.626Z,94.00
2022-08-09T22:44:01.337Z,93.80
2022-08-09T22:48:14.398Z,93.80
2022-08-09T22:49:09.582Z,93.60
2022-08-09T22:51:49.298Z,93.70
2022-08-09T22:54:21.996Z,93.90
2022-08-09T22:56:59.175Z,93.50
2022-08-09T22:59:57.733Z,93.50
2022-08-09T23:02:23.051Z,92.60
2022-08-09T23:04:57.115Z,92.00
2022-08-09T23:08:27.700Z,91.40
2022-08-09T23:10:43.733Z,90.80
2022-08-09T23:13:15.893Z,88.90
2022-08-09T23:16:02.652Z,87.50
2022-08-09T23:18:35.570Z,87.70
2022-08-09T23:21:08.877Z,86.60
2022-08-09T23:23:41.456Z,85.90
2022-08-09T23:26:13.343Z,85.00
2022-08-09T23:28:45.240Z,84.60
2022-08-09T23:31:17.265Z,84.10
2022-08-09T23:33:49.204Z,83.60
2022-08-09T23:36:21.121Z,83.20
2022-08-09T23:38:52.976Z,82.60
2022-08-09T23:41:27.565Z,84.40
2022-08-09T23:44:02.169Z,84.40
2022-08-09T23:46:34.581Z,85.20
2022-08-09T23:49:06.603Z,86.50
2022-08-09T23:51:38.523Z,87.80
2022-08-09T23:54:10.492Z,88.10
2022-08-09T23:56:52.991Z,88.50
2022-08-09T23:59:46.835Z,88.50
